Ijsselborg — PBTT — position and weather

sailwx.info

Track history (hours):
 
Tides and Currents Weather Stations Pressure Air Temp Water Temp Dewpoint Dewpoint Depression Visibility Wind Speed Wind Dir Waves Ship Positions

Ijsselborg

Last reported at 2018-May-13 08:02 UTC. Time now 2018-Jun-21 17:59 UTC.
Position N 39°54' W 075°08'.
Warning: this ship's position is 39 days out of date.

Length 143 m; draft 7.4 m.

Type: Cargo ship. MMSI: 244707000.

Date/timePositionNaut miles runAvg speedWind from/ knotsBaromVisibWave heightAir tempDewpointWater temp
2018-May-13 08:02N 39°54' W 075°08'54 4.3
2018-May-12 19:25N 39°00' W 075°08'512.7
2018-May-12 18:59N 39°05' W 075°11'714.4
2018-May-12 18:30N 39°11' W 075°16'814.9
2018-May-12 17:59N 39°17' W 075°22'714.8
2018-May-12 17:30N 39°22' W 075°28'815.6
2018-May-12 17:00N 39°29' W 075°34'714.8
2018-May-12 16:30N 39°36' W 075°34'713.5
2018-May-12 16:00N 39°42' W 075°31'612.6
2018-May-12 15:30N 39°48' W 075°26'510.5
2018-May-12 15:00N 39°51' W 075°20'510.9
2018-May-12 14:30N 39°52' W 075°14'5 9.4
2018-May-12 14:00N 39°54' W 075°08'3 5.0
2018-May-12 13:30N 39°56' W 075°08'0 0.0
2018-May-12 13:00N 39°56' W 075°08'0 0.0
2018-May-12 12:27N 39°56' W 075°08'0 0.2
2018-May-12 12:00N 39°56' W 075°08'0 0.3
2018-May-12 11:30N 39°56' W 075°08'0 0.1
2018-May-12 11:00N 39°56' W 075°08'0 0.0
2018-May-12 10:30N 39°56' W 075°08'0 0.0
2018-May-12 10:00N 39°56' W 075°08'0 0.0
2018-May-12 09:30N 39°56' W 075°08'0 0.0
2018-May-12 09:00N 39°56' W 075°08'0 0.0
2018-May-12 08:30N 39°56' W 075°08'0 0.0
2018-May-12 08:00N 39°56' W 075°08'0 0.0
2018-May-12 07:23N 39°56' W 075°08'0 0.0
2018-May-12 06:59N 39°56' W 075°08'0 0.0
2018-May-12 06:28N 39°56' W 075°08'0 0.0
2018-May-12 05:59N 39°56' W 075°08'0 0.1
2018-May-12 05:22N 39°56' W 075°08'0 0.3
2018-May-12 04:53N 39°56' W 075°08'0 0.0
2018-May-12 04:25N 39°56' W 075°08'0 0.0
2018-May-12 03:59N 39°56' W 075°08'0 0.0
2018-May-12 03:30N 39°56' W 075°08'0 0.0
2018-May-12 03:00N 39°56' W 075°08'0 0.0
2018-May-12 02:30N 39°56' W 075°08'0 0.0
2018-May-12 02:00N 39°56' W 075°08'0 0.6
2018-May-12 01:30N 39°57' W 075°08'4 8.7
2018-May-12 01:00N 39°59' W 075°04'5 9.9
2018-May-12 00:30N 40°03' W 074°59'510.3
2018-May-12 00:00N 40°05' W 074°53'4 8.5
2018-May-11 23:30N 40°08' W 074°49'3 4.6
2018-May-11 22:55N 40°08' W 074°45'0 0.0
2018-May-11 22:22N 40°08' W 074°45'0 0.0
2018-May-11 21:58N 40°08' W 074°45'0 0.0
2018-May-11 21:25N 40°08' W 074°45'0 0.0
2018-May-11 20:52N 40°08' W 074°45'0 0.0
2018-May-11 20:28N 40°08' W 074°45'0 0.0
2018-May-11 19:55N 40°08' W 074°45'0 0.0
2018-May-11 19:28N 40°08' W 074°45'0 0.0
2018-May-11 18:58N 40°08' W 074°45'0 0.0
2018-May-11 18:25N 40°08' W 074°45'0 0.0
2018-May-11 17:51N 40°08' W 074°45'0 0.0
2018-May-11 17:15N 40°08' W 074°45'0 0.0
2018-May-11 16:58N 40°08' W 074°45'0 0.0
2018-May-11 16:25N 40°08' W 074°45'0 0.0
2018-May-11 15:58N 40°08' W 074°45'0 0.0
2018-May-11 15:25N 40°08' W 074°45'0 0.0
2018-May-11 14:58N 40°08' W 074°45'0 0.0
2018-May-11 14:25N 40°08' W 074°45'0 0.0
2018-May-11 13:55N 40°08' W 074°45'0 0.0
2018-May-11 13:28N 40°08' W 074°45'0 0.0
2018-May-11 12:52N 40°08' W 074°45'0 0.0
2018-May-11 12:28N 40°08' W 074°45'0 0.0
2018-May-11 11:55N 40°08' W 074°45'0 0.0
2018-May-11 11:28N 40°08' W 074°45'0 0.0
2018-May-11 10:58N 40°08' W 074°45'0 0.0
2018-May-11 10:22N 40°08' W 074°45'0 0.0
2018-May-11 09:58N 40°08' W 074°45'0 0.0
2018-May-11 09:28N 40°08' W 074°45'0 0.0
2018-May-11 08:58N 40°08' W 074°45'0 0.0
2018-May-11 08:28N 40°08' W 074°45'0 0.0
2018-May-11 07:55N 40°08' W 074°45'0 0.0
2018-May-11 07:25N 40°08' W 074°45'0 0.0
2018-May-11 06:58N 40°08' W 074°45'0 0.0
2018-May-11 06:22N 40°08' W 074°45'0 0.0
2018-May-11 05:52N 40°08' W 074°45'0 0.0
2018-May-11 05:28N 40°08' W 074°45'0 0.0
2018-May-11 04:58N 40°08' W 074°45'0 0.0
2018-May-11 04:28N 40°08' W 074°45'0 0.0
2018-May-11 03:55N 40°08' W 074°45'0 0.0
2018-May-11 03:28N 40°08' W 074°45'0 0.0
2018-May-11 02:58N 40°08' W 074°45'0 0.0
2018-May-11 02:28N 40°08' W 074°45'0 0.0
2018-May-11 01:52N 40°08' W 074°45'0 0.0
2018-May-11 01:25N 40°08' W 074°45'0 0.0
2018-May-11 00:58N 40°08' W 074°45'0 0.0
2018-May-11 00:30N 40°08' W 074°45'1 1.6
2018-May-11 00:00N 40°08' W 074°46'3 6.0
2018-May-10 23:30N 40°07' W 074°50'4 9.1
2018-May-10 23:00N 40°04' W 074°55'510.6
2018-May-10 22:31N 40°01' W 075°00'5 9.6
2018-May-10 22:00N 39°59' W 075°05'4 8.1
2018-May-10 21:30N 39°55' W 075°08'4 7.3
2018-May-10 21:00N 39°53' W 075°12'5 9.5
2018-May-10 20:30N 39°51' W 075°17'611.8
2018-May-10 20:00N 39°49' W 075°24'612.2
2018-May-10 19:30N 39°44' W 075°30'613.0
2018-May-10 19:00N 39°38' W 075°34'611.9
2018-May-10 18:30N 39°33' W 075°33'612.2
2018-May-10 18:00N 39°26' W 075°33'612.9
2018-May-10 17:30N 39°22' W 075°27'612.1
2018-May-10 17:00N 39°17' W 075°22'1413.9
2018-May-10 16:00N 39°06' W 075°12'714.5
2018-May-10 15:30N 38°59' W 075°08'714.4
2018-May-10 15:00N 38°52' W 075°04'611.7
2018-May-10 14:30N 38°47' W 075°02'510.8
2018-May-10 14:00N 38°48' W 074°55'612.1
2018-May-10 13:30N 38°49' W 074°47'612.4
2018-May-10 13:00N 38°49' W 074°39'611.7
2018-May-10 12:30N 38°51' W 074°32'611.9
2018-May-10 12:01N 38°56' W 074°27'611.8
2018-May-10 11:30N 39°00' W 074°23'611.9
2018-May-10 11:00N 39°05' W 074°18'612.0
2018-May-10 10:30N 39°10' W 074°13'612.0
2018-May-10 10:00N 39°15' W 074°09'611.7
2018-May-10 09:30N 39°19' W 074°04'611.8
2018-May-10 09:00N 39°24' W 073°59'612.8
2018-May-10 08:30N 39°30' W 073°57'713.2
2018-May-10 08:00N 39°37' W 073°56'713.2
2018-May-10 07:30N 39°43' W 073°54'713.1
2018-May-10 07:00N 39°50' W 073°53'612.9
2018-May-10 06:30N 39°56' W 073°52'713.0
2018-May-10 06:00N 40°03' W 073°51'713.0
2018-May-10 05:28N 40°09' W 073°50'612.9
2018-May-10 05:00N 40°15' W 073°50'612.7
2018-May-10 04:30N 40°22' W 073°49'510.9
2018-May-10 04:00N 40°27' W 073°50'611.7
2018-May-10 03:30N 40°30' W 073°57'611.7
2018-May-10 03:00N 40°35' W 074°02'713.1
2018-May-10 02:30N 40°41' W 074°02'  
Track history (hours):
 
Tides and Currents Weather Stations Pressure Air Temp Water Temp Dewpoint Dewpoint Depression Visibility Wind Speed Wind Dir Waves Ship Positions

Ijsselborg

Last reported at 2018-May-13 08:02 UTC. Time now 2018-Jun-21 17:59 UTC.
Position N 39°54' W 075°08'.
Warning: this ship's position is 39 days out of date.

Length 143 m; draft 7.4 m.

Type: Cargo ship. MMSI: 244707000.

Date/timePositionNaut miles runAvg speedWind from/ knotsBaromVisibWave heightAir tempDewpointWater temp
2018-May-13 08:02N 39°54' W 075°08'54 4.3
2018-May-12 19:25N 39°00' W 075°08'512.7
2018-May-12 18:59N 39°05' W 075°11'714.4
2018-May-12 18:30N 39°11' W 075°16'814.9
2018-May-12 17:59N 39°17' W 075°22'714.8
2018-May-12 17:30N 39°22' W 075°28'815.6
2018-May-12 17:00N 39°29' W 075°34'714.8
2018-May-12 16:30N 39°36' W 075°34'713.5
2018-May-12 16:00N 39°42' W 075°31'612.6
2018-May-12 15:30N 39°48' W 075°26'510.5
2018-May-12 15:00N 39°51' W 075°20'510.9
2018-May-12 14:30N 39°52' W 075°14'5 9.4
2018-May-12 14:00N 39°54' W 075°08'3 5.0
2018-May-12 13:30N 39°56' W 075°08'0 0.0
2018-May-12 13:00N 39°56' W 075°08'0 0.0
2018-May-12 12:27N 39°56' W 075°08'0 0.2
2018-May-12 12:00N 39°56' W 075°08'0 0.3
2018-May-12 11:30N 39°56' W 075°08'0 0.1
2018-May-12 11:00N 39°56' W 075°08'0 0.0
2018-May-12 10:30N 39°56' W 075°08'0 0.0
2018-May-12 10:00N 39°56' W 075°08'0 0.0
2018-May-12 09:30N 39°56' W 075°08'0 0.0
2018-May-12 09:00N 39°56' W 075°08'0 0.0
2018-May-12 08:30N 39°56' W 075°08'0 0.0
2018-May-12 08:00N 39°56' W 075°08'0 0.0
2018-May-12 07:23N 39°56' W 075°08'0 0.0
2018-May-12 06:59N 39°56' W 075°08'0 0.0
2018-May-12 06:28N 39°56' W 075°08'0 0.0
2018-May-12 05:59N 39°56' W 075°08'0 0.1
2018-May-12 05:22N 39°56' W 075°08'0 0.3
2018-May-12 04:53N 39°56' W 075°08'0 0.0
2018-May-12 04:25N 39°56' W 075°08'0 0.0
2018-May-12 03:59N 39°56' W 075°08'0 0.0
2018-May-12 03:30N 39°56' W 075°08'0 0.0
2018-May-12 03:00N 39°56' W 075°08'0 0.0
2018-May-12 02:30N 39°56' W 075°08'0 0.0
2018-May-12 02:00N 39°56' W 075°08'0 0.6
2018-May-12 01:30N 39°57' W 075°08'4 8.7
2018-May-12 01:00N 39°59' W 075°04'5 9.9
2018-May-12 00:30N 40°03' W 074°59'510.3
2018-May-12 00:00N 40°05' W 074°53'4 8.5
2018-May-11 23:30N 40°08' W 074°49'3 4.6
2018-May-11 22:55N 40°08' W 074°45'0 0.0
2018-May-11 22:22N 40°08' W 074°45'0 0.0
2018-May-11 21:58N 40°08' W 074°45'0 0.0
2018-May-11 21:25N 40°08' W 074°45'0 0.0
2018-May-11 20:52N 40°08' W 074°45'0 0.0
2018-May-11 20:28N 40°08' W 074°45'0 0.0
2018-May-11 19:55N 40°08' W 074°45'0 0.0
2018-May-11 19:28N 40°08' W 074°45'0 0.0
2018-May-11 18:58N 40°08' W 074°45'0 0.0
2018-May-11 18:25N 40°08' W 074°45'0 0.0
2018-May-11 17:51N 40°08' W 074°45'0 0.0
2018-May-11 17:15N 40°08' W 074°45'0 0.0
2018-May-11 16:58N 40°08' W 074°45'0 0.0
2018-May-11 16:25N 40°08' W 074°45'0 0.0
2018-May-11 15:58N 40°08' W 074°45'0 0.0
2018-May-11 15:25N 40°08' W 074°45'0 0.0
2018-May-11 14:58N 40°08' W 074°45'0 0.0
2018-May-11 14:25N 40°08' W 074°45'0 0.0
2018-May-11 13:55N 40°08' W 074°45'0 0.0
2018-May-11 13:28N 40°08' W 074°45'0 0.0
2018-May-11 12:52N 40°08' W 074°45'0 0.0
2018-May-11 12:28N 40°08' W 074°45'0 0.0
2018-May-11 11:55N 40°08' W 074°45'0 0.0
2018-May-11 11:28N 40°08' W 074°45'0 0.0
2018-May-11 10:58N 40°08' W 074°45'0 0.0
2018-May-11 10:22N 40°08' W 074°45'0 0.0
2018-May-11 09:58N 40°08' W 074°45'0 0.0
2018-May-11 09:28N 40°08' W 074°45'0 0.0
2018-May-11 08:58N 40°08' W 074°45'0 0.0
2018-May-11 08:28N 40°08' W 074°45'0 0.0
2018-May-11 07:55N 40°08' W 074°45'0 0.0
2018-May-11 07:25N 40°08' W 074°45'0 0.0
2018-May-11 06:58N 40°08' W 074°45'0 0.0
2018-May-11 06:22N 40°08' W 074°45'0 0.0
2018-May-11 05:52N 40°08' W 074°45'0 0.0
2018-May-11 05:28N 40°08' W 074°45'0 0.0
2018-May-11 04:58N 40°08' W 074°45'0 0.0
2018-May-11 04:28N 40°08' W 074°45'0 0.0
2018-May-11 03:55N 40°08' W 074°45'0 0.0
2018-May-11 03:28N 40°08' W 074°45'0 0.0
2018-May-11 02:58N 40°08' W 074°45'0 0.0
2018-May-11 02:28N 40°08' W 074°45'0 0.0
2018-May-11 01:52N 40°08' W 074°45'0 0.0
2018-May-11 01:25N 40°08' W 074°45'0 0.0
2018-May-11 00:58N 40°08' W 074°45'0 0.0
2018-May-11 00:30N 40°08' W 074°45'1 1.6
2018-May-11 00:00N 40°08' W 074°46'3 6.0
2018-May-10 23:30N 40°07' W 074°50'4 9.1
2018-May-10 23:00N 40°04' W 074°55'510.6
2018-May-10 22:31N 40°01' W 075°00'5 9.6
2018-May-10 22:00N 39°59' W 075°05'4 8.1
2018-May-10 21:30N 39°55' W 075°08'4 7.3
2018-May-10 21:00N 39°53' W 075°12'5 9.5
2018-May-10 20:30N 39°51' W 075°17'611.8
2018-May-10 20:00N 39°49' W 075°24'612.2
2018-May-10 19:30N 39°44' W 075°30'613.0
2018-May-10 19:00N 39°38' W 075°34'611.9
2018-May-10 18:30N 39°33' W 075°33'612.2
2018-May-10 18:00N 39°26' W 075°33'612.9
2018-May-10 17:30N 39°22' W 075°27'612.1
2018-May-10 17:00N 39°17' W 075°22'1413.9
2018-May-10 16:00N 39°06' W 075°12'714.5
2018-May-10 15:30N 38°59' W 075°08'714.4
2018-May-10 15:00N 38°52' W 075°04'611.7
2018-May-10 14:30N 38°47' W 075°02'510.8
2018-May-10 14:00N 38°48' W 074°55'612.1
2018-May-10 13:30N 38°49' W 074°47'612.4
2018-May-10 13:00N 38°49' W 074°39'611.7
2018-May-10 12:30N 38°51' W 074°32'611.9
2018-May-10 12:01N 38°56' W 074°27'611.8
2018-May-10 11:30N 39°00' W 074°23'611.9
2018-May-10 11:00N 39°05' W 074°18'612.0
2018-May-10 10:30N 39°10' W 074°13'612.0
2018-May-10 10:00N 39°15' W 074°09'611.7
2018-May-10 09:30N 39°19' W 074°04'611.8
2018-May-10 09:00N 39°24' W 073°59'612.8
2018-May-10 08:30N 39°30' W 073°57'713.2
2018-May-10 08:00N 39°37' W 073°56'713.2
2018-May-10 07:30N 39°43' W 073°54'713.1
2018-May-10 07:00N 39°50' W 073°53'612.9
2018-May-10 06:30N 39°56' W 073°52'713.0
2018-May-10 06:00N 40°03' W 073°51'713.0
2018-May-10 05:28N 40°09' W 073°50'612.9
2018-May-10 05:00N 40°15' W 073°50'612.7
2018-May-10 04:30N 40°22' W 073°49'510.9
2018-May-10 04:00N 40°27' W 073°50'611.7
2018-May-10 03:30N 40°30' W 073°57'611.7
2018-May-10 03:00N 40°35' W 074°02'713.1
2018-May-10 02:30N 40°41' W 074°02'  

Dump ship's entire track history